createdAt,value
2023-11-15T00:01:39.500Z,0.55
2023-11-15T00:04:08.179Z,0.46
2023-11-15T00:06:36.900Z,0.41
2023-11-15T00:09:08.282Z,0.49
2023-11-15T00:11:37.441Z,0.51
2023-11-15T00:14:06.053Z,0.40
2023-11-15T00:16:34.659Z,0.39
2023-11-15T00:19:03.490Z,0.34
2023-11-15T00:21:32.424Z,0.34
2023-11-15T00:24:00.780Z,0.29
2023-11-15T00:26:31.658Z,0.40
2023-11-15T00:29:00.240Z,0.40
2023-11-15T00:31:28.785Z,0.40
2023-11-15T00:33:57.380Z,0.34
2023-11-15T00:36:26.023Z,0.28
2023-11-15T00:38:54.653Z,0.15
2023-11-15T00:41:23.341Z,0.16
2023-11-15T00:43:51.901Z,-0.01
2023-11-15T00:46:20.506Z,0.04
2023-11-15T00:48:49.217Z,0.01
2023-11-15T00:51:17.602Z,-0.15
2023-11-15T00:53:46.170Z,-0.26
2023-11-15T00:56:14.990Z,-0.30
2023-11-15T00:58:43.952Z,-0.49
2023-11-15T01:01:13.355Z,-0.59
2023-11-15T01:03:47.825Z,-0.74
2023-11-15T01:06:16.196Z,-0.82
2023-11-15T01:08:44.721Z,-0.85
2023-11-15T01:11:13.275Z,-0.85
2023-11-15T01:13:42.179Z,-0.85
2023-11-15T01:16:10.864Z,-0.76
2023-11-15T01:18:39.461Z,-0.86
2023-11-15T01:21:11.452Z,-0.80
2023-11-15T01:23:41.317Z,-0.76
2023-11-15T01:26:10.037Z,-0.77
2023-11-15T01:28:38.708Z,-0.85
2023-11-15T01:31:06.929Z,-0.82
2023-11-15T01:33:35.648Z,-0.80
2023-11-15T01:36:04.259Z,-0.76
2023-11-15T01:38:32.908Z,-0.85
2023-11-15T01:41:02.331Z,-0.75
2023-11-15T01:43:30.864Z,-0.79
2023-11-15T01:45:59.847Z,-0.94
2023-11-15T01:48:28.506Z,-0.77
2023-11-15T01:50:57.951Z,-0.78
2023-11-15T01:53:27.460Z,-0.70
2023-11-15T01:55:56.545Z,-0.49
2023-11-15T01:58:30.652Z,-0.36
2023-11-15T02:00:59.610Z,-0.39
2023-11-15T02:03:28.252Z,-0.47
2023-11-15T02:05:57.409Z,-0.44
2023-11-15T02:08:26.062Z,-0.47
2023-11-15T02:10:55.342Z,-0.52
2023-11-15T02:13:28.677Z,-0.59
2023-11-15T02:16:00.517Z,-0.66
2023-11-15T02:18:29.187Z,-0.69
2023-11-15T02:20:57.816Z,-0.75
2023-11-15T02:23:28.140Z,-0.72
2023-11-15T02:25:56.780Z,-0.51
2023-11-15T02:28:25.566Z,-0.48
2023-11-15T02:30:54.267Z,-0.58
2023-11-15T02:33:22.872Z,-0.70
2023-11-15T02:35:51.436Z,-0.71
2023-11-15T02:38:20.157Z,-0.61
2023-11-15T02:40:48.732Z,-0.80
2023-11-15T02:43:17.329Z,-0.93
2023-11-15T02:45:46.171Z,-1.15
2023-11-15T02:48:14.962Z,-1.23
2023-11-15T02:50:43.545Z,-1.39
2023-11-15T02:53:12.255Z,-1.48
2023-11-15T02:55:40.780Z,-1.59
2023-11-15T02:58:09.300Z,-1.61
2023-11-15T03:00:37.852Z,-1.75
2023-11-15T03:03:06.709Z,-1.88
2023-11-15T03:05:35.473Z,-2.06
2023-11-15T03:08:04.134Z,-1.85
2023-11-15T03:10:32.864Z,-2.02
2023-11-15T03:13:02.566Z,-2.35
2023-11-15T03:15:31.872Z,-2.39
2023-11-15T03:18:00.740Z,-2.54
2023-11-15T03:20:29.672Z,-2.69
2023-11-15T03:22:58.162Z,-2.71
2023-11-15T03:25:26.693Z,-2.62
2023-11-15T03:27:56.234Z,-2.43
2023-11-15T03:30:25.985Z,-2.46
2023-11-15T03:32:54.686Z,-2.47
2023-11-15T03:35:24.591Z,-2.63
2023-11-15T03:37:54.524Z,-2.84
2023-11-15T03:40:23.203Z,-2.91
2023-11-15T03:42:52.821Z,-2.79
2023-11-15T03:45:21.554Z,-2.88
2023-11-15T03:47:50.017Z,-2.88
2023-11-15T03:50:18.625Z,-3.24
2023-11-15T03:52:47.236Z,-3.15
2023-11-15T03:55:15.947Z,-3.24
2023-11-15T03:57:45.343Z,-3.47
2023-11-15T04:00:14.399Z,-3.45
2023-11-15T04:02:42.534Z,-3.44
2023-11-15T04:05:15.407Z,-3.51
2023-11-15T04:07:44.481Z,-3.66
2023-11-15T04:10:13.483Z,-3.71
2023-11-15T04:12:42.147Z,-3.88
2023-11-15T04:15:11.543Z,-3.95
2023-11-15T04:17:40.380Z,-4.19
2023-11-15T04:20:11.177Z,-4.10
2023-11-15T04:22:39.785Z,-4.15
2023-11-15T04:25:08.670Z,-4.08
2023-11-15T04:27:37.355Z,-4.30
2023-11-15T04:30:06.315Z,-4.17
2023-11-15T04:32:34.796Z,-4.14
2023-11-15T04:35:06.120Z,-4.21
2023-11-15T04:37:38.997Z,-4.39
2023-11-15T04:40:12.687Z,-4.31
2023-11-15T04:42:41.342Z,-4.20
2023-11-15T04:45:12.041Z,-4.25
2023-11-15T04:47:40.684Z,-4.42
2023-11-15T04:50:10.773Z,-4.53
2023-11-15T04:52:39.526Z,-4.48
2023-11-15T04:55:08.244Z,-4.61
2023-11-15T04:57:37.449Z,-4.69
2023-11-15T05:00:07.958Z,-4.72
2023-11-15T05:02:36.392Z,-4.91
2023-11-15T05:05:07.567Z,-5.01
2023-11-15T05:07:37.054Z,-4.87
2023-11-15T05:10:07.319Z,-4.75
2023-11-15T05:12:35.890Z,-4.73
2023-11-15T05:15:04.853Z,-4.69
2023-11-15T05:17:33.665Z,-4.67
2023-11-15T05:20:02.212Z,-4.64
2023-11-15T05:22:30.769Z,-4.58
2023-11-15T05:24:59.315Z,-4.59
2023-11-15T05:27:28.119Z,-4.58
2023-11-15T05:29:56.655Z,-4.65
2023-11-15T05:32:25.370Z,-4.76
2023-11-15T05:34:53.953Z,-4.84
2023-11-15T05:37:22.422Z,-4.86
2023-11-15T05:39:50.984Z,-4.92
2023-11-15T05:42:19.492Z,-4.97
2023-11-15T05:44:48.009Z,-4.98
2023-11-15T05:47:18.173Z,-5.02
2023-11-15T05:49:46.549Z,-5.02
2023-11-15T05:52:17.174Z,-4.81
2023-11-15T05:54:46.759Z,-4.80
2023-11-15T05:57:16.357Z,-4.70
2023-11-15T05:59:45.026Z,-4.64
2023-11-15T06:02:13.906Z,-4.62
2023-11-15T06:04:42.797Z,-4.57
2023-11-15T06:07:11.992Z,-4.38
2023-11-15T06:09:40.610Z,-4.39
2023-11-15T06:12:09.617Z,-4.37
2023-11-15T06:14:38.118Z,-4.26
2023-11-15T06:17:06.959Z,-3.85
2023-11-15T06:19:35.685Z,-3.32
2023-11-15T06:22:04.250Z,-3.44
2023-11-15T06:24:34.848Z,-3.52
2023-11-15T06:27:03.496Z,-3.51
2023-11-15T06:29:32.138Z,-3.44
2023-11-15T06:32:00.762Z,-3.35
2023-11-15T06:34:29.315Z,-3.29
2023-11-15T06:36:58.434Z,-3.21
2023-11-15T06:39:27.296Z,-3.15
2023-11-15T06:41:56.082Z,-3.17
2023-11-15T06:44:24.655Z,-3.11
2023-11-15T06:46:53.291Z,-2.98
2023-11-15T06:49:21.970Z,-2.84
2023-11-15T06:51:51.622Z,-2.68
2023-11-15T06:54:20.236Z,-2.62
2023-11-15T06:56:51.737Z,-2.48
2023-11-15T06:59:20.475Z,-2.38
2023-11-15T07:01:52.456Z,-2.31
2023-11-15T07:04:22.306Z,-2.31
2023-11-15T07:06:51.200Z,-2.38
2023-11-15T07:09:22.820Z,-2.48
2023-11-15T07:11:54.425Z,-2.52
2023-11-15T07:14:23.099Z,-2.72
2023-11-15T07:16:57.929Z,-2.74
2023-11-15T07:19:27.281Z,-2.89
2023-11-15T07:21:55.936Z,-2.97
2023-11-15T07:24:24.638Z,-3.12
2023-11-15T07:26:53.597Z,-3.18
2023-11-15T07:29:22.856Z,-3.31
2023-11-15T07:31:55.474Z,-3.40
2023-11-15T07:34:25.574Z,-3.46
2023-11-15T07:37:04.887Z,-3.46
2023-11-15T07:39:33.585Z,-3.63
2023-11-15T07:42:03.006Z,-3.66
2023-11-15T07:44:32.651Z,-3.96
2023-11-15T07:47:04.316Z,-3.83
2023-11-15T07:49:32.810Z,-3.99
2023-11-15T07:52:01.465Z,-3.93
2023-11-15T07:54:30.293Z,-3.95
2023-11-15T07:56:58.953Z,-3.89
2023-11-15T07:59:28.567Z,-3.96
2023-11-15T08:01:57.112Z,-3.97
2023-11-15T08:04:27.363Z,-3.91
2023-11-15T08:06:56.028Z,-3.87
2023-11-15T08:09:27.481Z,-3.80
2023-11-15T08:11:58.197Z,-3.76
2023-11-15T08:14:27.822Z,-3.89
2023-11-15T08:16:57.221Z,-3.85
2023-11-15T08:19:25.838Z,-3.70
2023-11-15T08:21:58.963Z,-3.63
2023-11-15T08:24:28.989Z,-3.46
2023-11-15T08:26:58.499Z,-3.24
2023-11-15T08:29:27.037Z,-3.17
2023-11-15T08:31:55.944Z,-3.13
2023-11-15T08:34:26.747Z,-3.06
2023-11-15T08:36:55.744Z,-3.11
2023-11-15T08:39:25.240Z,-2.99
2023-11-15T08:41:53.955Z,-3.03
2023-11-15T08:44:22.501Z,-3.02
2023-11-15T08:46:52.575Z,-2.95
2023-11-15T08:49:22.746Z,-2.95
2023-11-15T08:51:53.079Z,-2.91
2023-11-15T08:54:21.769Z,-2.81
2023-11-15T08:56:50.371Z,-2.75
2023-11-15T08:59:21.642Z,-2.72
2023-11-15T09:01:50.046Z,-2.72
2023-11-15T09:04:19.568Z,-2.85
2023-11-15T09:06:51.063Z,-2.83
2023-11-15T09:09:19.980Z,-2.84
2023-11-15T09:11:49.620Z,-2.90
2023-11-15T09:14:18.898Z,-2.88
2023-11-15T09:16:47.547Z,-2.88
2023-11-15T09:19:23.287Z,-2.96
2023-11-15T09:21:52.488Z,-2.84
2023-11-15T09:24:24.452Z,-2.83
2023-11-15T09:26:53.372Z,-2.99
2023-11-15T09:29:21.974Z,-3.05
2023-11-15T09:31:50.594Z,-3.14
2023-11-15T09:34:19.669Z,-3.10
2023-11-15T09:36:50.408Z,-3.16
2023-11-15T09:39:19.219Z,-3.11
2023-11-15T09:41:56.055Z,-3.13
2023-11-15T09:44:25.894Z,-3.10
2023-11-15T09:47:00.283Z,-2.90
2023-11-15T09:49:29.207Z,-2.84
2023-11-15T09:51:59.429Z,-2.77
2023-11-15T09:54:30.348Z,-2.37
2023-11-15T09:57:01.102Z,-2.26
2023-11-15T09:59:29.659Z,-2.24
2023-11-15T10:01:59.955Z,-2.25
2023-11-15T10:04:30.745Z,-2.30
2023-11-15T10:07:05.614Z,-2.35
2023-11-15T10:09:39.127Z,-2.39
2023-11-15T10:12:11.345Z,-2.31
2023-11-15T10:14:56.159Z,-2.35
2023-11-15T10:17:47.643Z,-2.37
2023-11-15T10:20:24.548Z,-2.32
2023-11-15T10:22:55.401Z,-2.39
2023-11-15T10:25:27.629Z,-2.49
2023-11-15T10:28:09.691Z,-2.53
2023-11-15T10:30:39.570Z,-2.51
2023-11-15T10:33:12.904Z,-2.54
2023-11-15T10:35:42.747Z,-2.66
2023-11-15T10:38:16.628Z,-2.76
2023-11-15T10:40:46.054Z,-2.92
2023-11-15T10:43:18.591Z,-3.21
2023-11-15T10:45:48.528Z,-3.32
2023-11-15T10:48:24.048Z,-3.44
2023-11-15T10:51:00.409Z,-3.76
2023-11-15T10:53:30.775Z,-4.03
2023-11-15T10:56:01.413Z,-3.96
2023-11-15T10:58:31.865Z,-4.08
2023-11-15T11:01:00.760Z,-4.08
2023-11-15T11:03:30.795Z,-4.30
2023-11-15T11:06:17.916Z,-4.29
2023-11-15T11:09:12.833Z,-4.52
2023-11-15T11:11:54.640Z,-4.61
2023-11-15T11:14:28.626Z,-4.72
2023-11-15T11:17:01.590Z,-4.74
2023-11-15T11:19:43.802Z,-4.79
2023-11-15T11:22:14.556Z,-4.84
2023-11-15T11:25:09.273Z,-4.85
2023-11-15T11:27:44.932Z,-4.86
2023-11-15T11:30:18.719Z,-4.93
2023-11-15T11:32:52.153Z,-4.90
2023-11-15T11:35:28.015Z,-5.00
2023-11-15T11:37:56.940Z,-4.97
2023-11-15T11:40:36.981Z,-5.03
2023-11-15T11:43:14.353Z,-5.00
2023-11-15T11:45:45.821Z,-5.04
2023-11-15T11:48:25.352Z,-4.94
2023-11-15T11:51:07.790Z,-5.09
2023-11-15T11:53:44.878Z,-5.27
2023-11-15T11:56:13.846Z,-5.26
2023-11-15T11:58:44.845Z,-5.44
2023-11-15T12:01:14.675Z,-5.55
2023-11-15T12:03:50.028Z,-5.63
2023-11-15T12:06:20.285Z,-5.75
2023-11-15T12:08:56.530Z,-5.64
2023-11-15T12:11:25.536Z,-5.71
2023-11-15T12:13:55.107Z,-5.68
2023-11-15T12:16:25.807Z,-5.74
2023-11-15T12:19:07.398Z,-5.69
2023-11-15T12:21:39.557Z,-5.79
2023-11-15T12:24:09.562Z,-5.91
2023-11-15T12:26:49.522Z,-5.97
2023-11-15T12:29:29.411Z,-5.97
2023-11-15T12:31:59.864Z,-6.00
2023-11-15T12:34:29.751Z,-5.96
2023-11-15T12:36:58.441Z,-5.77
2023-11-15T12:39:37.162Z,-5.64
2023-11-15T12:42:06.720Z,-5.76
2023-11-15T12:44:46.953Z,-5.77
2023-11-15T12:47:15.996Z,-5.77
2023-11-15T12:49:44.763Z,-5.67
2023-11-15T12:52:13.340Z,-5.51
2023-11-15T12:54:58.292Z,-5.48
2023-11-15T12:57:29.173Z,-5.34
2023-11-15T12:59:58.873Z,-5.47
2023-11-15T13:02:32.988Z,-5.43
2023-11-15T13:05:06.174Z,-5.35
2023-11-15T13:07:35.035Z,-5.28
2023-11-15T13:10:03.589Z,-5.30
2023-11-15T13:12:32.121Z,-5.39
2023-11-15T13:15:00.713Z,-5.45
2023-11-15T13:17:29.486Z,-5.57
2023-11-15T13:20:02.531Z,-5.56
2023-11-15T13:22:33.952Z,-5.65
2023-11-15T13:25:02.607Z,-5.51
2023-11-15T13:27:31.273Z,-5.59
2023-11-15T13:30:00.537Z,-5.79
2023-11-15T13:32:29.228Z,-5.82
2023-11-15T13:34:57.816Z,-5.92
2023-11-15T13:37:26.900Z,-5.92
2023-11-15T13:39:55.549Z,-6.11
2023-11-15T13:42:24.887Z,-6.13
2023-11-15T13:44:53.524Z,-6.20
2023-11-15T13:47:22.076Z,-6.23
2023-11-15T13:49:50.454Z,-6.20
2023-11-15T13:52:19.146Z,-6.11
2023-11-15T13:54:48.937Z,-6.03
2023-11-15T13:57:20.828Z,-6.16
2023-11-15T13:59:49.558Z,-6.08
2023-11-15T14:02:18.137Z,-5.96
2023-11-15T14:04:46.915Z,-5.90
2023-11-15T14:07:15.638Z,-5.86
2023-11-15T14:09:44.333Z,-5.98
2023-11-15T14:12:13.557Z,-5.97
2023-11-15T14:14:42.392Z,-5.87
2023-11-15T14:17:12.322Z,-5.92
2023-11-15T14:19:42.519Z,-6.03
2023-11-15T14:22:14.298Z,-6.14
2023-11-15T14:24:42.876Z,-6.21
2023-11-15T14:27:13.930Z,-6.17
2023-11-15T14:29:44.038Z,-6.33
2023-11-15T14:32:13.608Z,-6.39
2023-11-15T14:34:44.195Z,-6.55
2023-11-15T14:37:12.723Z,-6.50
2023-11-15T14:39:41.344Z,-6.54
2023-11-15T14:42:10.581Z,-6.48
2023-11-15T14:44:39.138Z,-6.53
2023-11-15T14:47:10.163Z,-6.49
2023-11-15T14:49:38.415Z,-6.59
2023-11-15T14:52:12.829Z,-6.74
2023-11-15T14:54:49.455Z,-6.63
2023-11-15T14:57:18.140Z,-6.57
2023-11-15T14:59:49.270Z,-6.56
2023-11-15T15:02:19.885Z,-6.61
2023-11-15T15:04:50.525Z,-6.59
2023-11-15T15:07:19.509Z,-6.42
2023-11-15T15:09:48.602Z,-6.54
2023-11-15T15:12:17.787Z,-6.47
2023-11-15T15:14:46.883Z,-6.44
2023-11-15T15:17:23.521Z,-6.47
2023-11-15T15:19:55.544Z,-6.53
2023-11-15T15:22:28.442Z,-6.70
2023-11-15T15:24:57.245Z,-5.90
2023-11-15T15:27:29.430Z,-4.90
2023-11-15T15:30:02.237Z,-4.39
2023-11-15T15:32:30.981Z,-3.78
2023-11-15T15:34:59.897Z,-3.57
2023-11-15T15:37:28.407Z,-3.29
2023-11-15T15:39:57.094Z,-3.24
2023-11-15T15:42:26.469Z,-2.90
2023-11-15T15:44:55.071Z,-2.72
2023-11-15T15:47:24.219Z,-2.55
2023-11-15T15:49:55.747Z,-2.63
2023-11-15T15:52:25.395Z,-2.62
2023-11-15T15:54:53.957Z,-2.52
2023-11-15T15:57:22.579Z,-2.48
2023-11-15T15:59:52.591Z,-2.56
2023-11-15T16:02:21.226Z,-2.67
2023-11-15T16:04:49.778Z,-2.79
2023-11-15T16:07:18.280Z,-2.91
2023-11-15T16:09:46.289Z,-2.82
2023-11-15T16:12:15.316Z,-2.95
2023-11-15T16:14:43.948Z,-2.90
2023-11-15T16:17:12.939Z,-2.92
2023-11-15T16:19:41.533Z,-2.98
2023-11-15T16:22:09.942Z,-2.86
2023-11-15T16:24:38.427Z,-2.91
2023-11-15T16:27:08.365Z,-2.82
2023-11-15T16:29:36.724Z,-2.80
2023-11-15T16:32:05.503Z,-2.55
2023-11-15T16:34:34.460Z,-2.46
2023-11-15T16:37:03.549Z,-2.52
2023-11-15T16:39:32.224Z,-2.51
2023-11-15T16:42:02.295Z,-2.35
2023-11-15T16:44:35.907Z,-2.32
2023-11-15T16:47:04.161Z,-2.34
2023-11-15T16:49:32.731Z,-2.40
2023-11-15T16:52:03.612Z,-2.26
2023-11-15T16:54:33.738Z,-1.94
2023-11-15T16:57:04.741Z,-1.76
2023-11-15T16:59:34.964Z,-1.31
2023-11-15T17:02:03.878Z,-0.88
2023-11-15T17:04:32.566Z,-0.77
2023-11-15T17:07:00.925Z,-0.59
2023-11-15T17:09:30.583Z,-0.44
2023-11-15T17:11:59.275Z,-0.46
2023-11-15T17:14:28.603Z,-0.36
2023-11-15T17:16:57.061Z,-0.18
2023-11-15T17:19:27.299Z,-0.11
2023-11-15T17:21:58.783Z,-0.07
2023-11-15T17:24:28.441Z,0.06
2023-11-15T17:26:58.263Z,0.03
2023-11-15T17:29:26.869Z,0.18
2023-11-15T17:31:56.275Z,0.13
2023-11-15T17:34:24.932Z,0.12
2023-11-15T17:36:54.704Z,0.15
2023-11-15T17:39:24.296Z,0.26
2023-11-15T17:41:54.998Z,0.20
2023-11-15T17:44:24.860Z,0.22
2023-11-15T17:46:53.860Z,0.20
2023-11-15T17:49:22.160Z,0.17
2023-11-15T17:51:51.043Z,0.25
2023-11-15T17:54:21.076Z,0.37
2023-11-15T17:56:49.882Z,0.43
2023-11-15T17:59:18.329Z,0.39
2023-11-15T18:01:46.992Z,0.37
2023-11-15T18:04:16.707Z,0.35
2023-11-15T18:06:45.199Z,0.42
2023-11-15T18:09:14.326Z,0.47
2023-11-15T18:11:43.287Z,0.41
2023-11-15T18:14:12.472Z,0.38
2023-11-15T18:16:41.076Z,0.27
2023-11-15T18:19:14.501Z,0.38
2023-11-15T18:21:43.557Z,0.54
2023-11-15T18:24:13.721Z,0.68
2023-11-15T18:26:44.467Z,0.59
2023-11-15T18:29:12.918Z,0.74
2023-11-15T18:31:41.491Z,0.56
2023-11-15T18:34:11.004Z,0.66
2023-11-15T18:36:43.653Z,0.69
2023-11-15T18:39:16.837Z,0.79
2023-11-15T18:41:49.144Z,0.74
2023-11-15T18:44:20.613Z,0.81
2023-11-15T18:46:56.165Z,0.80
2023-11-15T18:49:25.460Z,0.77
2023-11-15T18:51:55.223Z,0.78
2023-11-15T18:54:24.840Z,0.89
2023-11-15T18:56:54.428Z,0.95
2023-11-15T18:59:22.940Z,0.91
2023-11-15T19:01:51.594Z,0.83
2023-11-15T19:04:21.352Z,1.00
2023-11-15T19:06:52.016Z,0.95
2023-11-15T19:09:25.603Z,0.99
2023-11-15T19:11:58.209Z,0.94
2023-11-15T19:14:26.974Z,1.16
2023-11-15T19:16:55.551Z,1.15
2023-11-15T19:19:25.270Z,0.94
2023-11-15T19:21:54.036Z,0.93
2023-11-15T19:24:23.267Z,1.08
2023-11-15T19:26:51.848Z,1.20
2023-11-15T19:29:20.548Z,1.17
2023-11-15T19:31:48.959Z,1.25
2023-11-15T19:34:19.673Z,1.14
2023-11-15T19:36:48.274Z,1.15
2023-11-15T19:39:16.988Z,1.20
2023-11-15T19:41:45.607Z,1.13
2023-11-15T19:44:15.402Z,1.13
2023-11-15T19:46:44.425Z,1.10
2023-11-15T19:49:14.327Z,1.14
2023-11-15T19:51:42.993Z,1.01
2023-11-15T19:54:11.566Z,1.01
2023-11-15T19:56:40.204Z,0.95
2023-11-15T19:59:08.772Z,1.06
2023-11-15T20:01:37.473Z,1.10
2023-11-15T20:04:07.772Z,1.03
2023-11-15T20:06:36.392Z,0.91
2023-11-15T20:09:04.955Z,0.86
2023-11-15T20:11:33.560Z,1.01
2023-11-15T20:14:02.341Z,1.04
2023-11-15T20:16:30.933Z,1.08
2023-11-15T20:18:59.578Z,0.90
2023-11-15T20:21:28.010Z,0.98
2023-11-15T20:23:56.704Z,0.90
2023-11-15T20:26:24.661Z,0.93
2023-11-15T20:28:54.229Z,0.91
2023-11-15T20:31:23.506Z,0.97
2023-11-15T20:33:52.502Z,0.87
2023-11-15T20:36:22.492Z,0.96
2023-11-15T20:38:50.997Z,0.91
2023-11-15T20:41:19.609Z,0.86
2023-11-15T20:43:48.177Z,0.75
2023-11-15T20:46:18.983Z,0.86
2023-11-15T20:48:49.391Z,0.89
2023-11-15T20:51:17.963Z,0.78
2023-11-15T20:53:46.655Z,0.79
2023-11-15T20:56:15.229Z,0.80
2023-11-15T20:58:43.926Z,0.82
2023-11-15T21:01:12.546Z,0.83
2023-11-15T21:03:41.290Z,0.79
2023-11-15T21:06:11.642Z,0.71
2023-11-15T21:08:40.238Z,0.78
2023-11-15T21:11:08.859Z,0.67
2023-11-15T21:13:37.381Z,0.62
2023-11-15T21:16:10.069Z,0.64
2023-11-15T21:18:39.212Z,0.57
2023-11-15T21:21:10.127Z,0.58
2023-11-15T21:23:41.501Z,0.63
2023-11-15T21:26:11.208Z,0.52
2023-11-15T21:28:39.802Z,0.52
2023-11-15T21:31:08.954Z,0.66
2023-11-15T21:33:37.777Z,0.66
2023-11-15T21:36:06.593Z,0.68
2023-11-15T21:38:35.126Z,0.68
2023-11-15T21:41:03.862Z,0.63
2023-11-15T21:43:32.409Z,0.55
2023-11-15T21:46:01.040Z,0.49
2023-11-15T21:48:30.725Z,0.46
2023-11-15T21:50:59.206Z,0.33
2023-11-15T21:53:27.978Z,0.19
2023-11-15T21:56:00.107Z,0.12
2023-11-15T21:58:29.875Z,-0.03
2023-11-15T22:00:58.361Z,-0.17
2023-11-15T22:03:26.806Z,-0.16
2023-11-15T22:05:55.507Z,-0.14
2023-11-15T22:08:24.056Z,-0.09
2023-11-15T22:10:52.925Z,-0.12
2023-11-15T22:13:21.727Z,-0.16
2023-11-15T22:15:50.296Z,-0.15
2023-11-15T22:18:18.983Z,-0.25
2023-11-15T22:20:47.617Z,-0.39
2023-11-15T22:23:16.115Z,-0.40
2023-11-15T22:25:44.643Z,-0.60
2023-11-15T22:28:13.250Z,-0.77
2023-11-15T22:30:42.437Z,-0.87
2023-11-15T22:33:11.086Z,-1.08
2023-11-15T22:35:39.739Z,-1.07
2023-11-15T22:38:07.650Z,-1.29
2023-11-15T22:40:36.054Z,-1.40
2023-11-15T22:43:06.016Z,-1.54
2023-11-15T22:45:34.856Z,-1.62
2023-11-15T22:48:03.543Z,-1.63
2023-11-15T22:50:32.255Z,-1.76
2023-11-15T22:53:00.745Z,-1.79
2023-11-15T22:55:29.309Z,-1.98
2023-11-15T22:57:57.856Z,-2.01
2023-11-15T23:00:35.691Z,-2.12
2023-11-15T23:03:11.859Z,-2.15
2023-11-15T23:05:42.416Z,-2.18
2023-11-15T23:08:16.599Z,-2.22
2023-11-15T23:10:45.616Z,-2.35
2023-11-15T23:13:14.865Z,-2.47
2023-11-15T23:15:43.561Z,-2.67
2023-11-15T23:18:12.650Z,-2.68
2023-11-15T23:20:43.407Z,-2.77
2023-11-15T23:23:12.665Z,-2.87
2023-11-15T23:25:41.799Z,-2.96
2023-11-15T23:28:11.584Z,-3.06
2023-11-15T23:30:42.045Z,-3.14
2023-11-15T23:33:10.905Z,-3.32
2023-11-15T23:35:41.563Z,-3.33
2023-11-15T23:38:10.276Z,-3.31
2023-11-15T23:40:38.975Z,-3.35
2023-11-15T23:43:07.613Z,-3.46
2023-11-15T23:45:36.130Z,-3.60
2023-11-15T23:48:04.874Z,-3.64
2023-11-15T23:50:33.583Z,-3.79
2023-11-15T23:53:02.073Z,-3.85
2023-11-15T23:55:31.483Z,-3.97
2023-11-15T23:58:05.816Z,-4.06
